Time;durP1;ratioP1;P1;durP2;ratioP2;P2;SDS_P1;SDS_P2;PMS_P1;PMS_P2;Temp;Humidity;BMP_temperature;BMP_pressure;BME280_temperature;BME280_humidity;BME280_pressure;Samples;Min_cycle;Max_cycle;Signal;HPM_P1;HPM_P2
2023/03/27 00:00:43;;;;;;;7.87;2.17;;;4.30;99.90;;;;;;5081164;28;20492;-80
2023/03/27 00:03:10;;;;;;;7.77;2.03;;;4.20;99.90;;;;;;5079847;28;20226;-79
2023/03/27 00:05:36;;;;;;;11.37;1.93;;;4.20;99.90;;;;;;5081143;28;20176;-80
2023/03/27 00:08:03;;;;;;;11.57;2.20;;;4.20;99.90;;;;;;5081519;28;20166;-79
2023/03/27 00:10:28;;;;;;;11.00;1.67;;;4.10;99.90;;;;;;5081545;28;20619;-79
2023/03/27 00:12:54;;;;;;;7.43;1.87;;;4.10;99.90;;;;;;5080571;28;20333;-79
2023/03/27 00:15:20;;;;;;;12.10;2.00;;;4.10;99.90;;;;;;5080945;28;20175;-79
2023/03/27 00:17:49;;;;;;;4.50;1.73;;;4.10;99.90;;;;;;5081149;28;20171;-80
2023/03/27 00:20:21;;;;;;;16.17;2.57;;;4.10;99.90;;;;;;5079797;28;20255;-80
2023/03/27 00:22:55;;;;;;;10.90;2.37;;;4.10;99.90;;;;;;5081180;28;20193;-80
2023/03/27 00:25:22;;;;;;;14.77;2.70;;;4.10;99.90;;;;;;5080214;28;20175;-79
2023/03/27 00:27:48;;;;;;;14.67;2.13;;;4.10;99.90;;;;;;5080878;28;20175;-79
2023/03/27 00:30:14;;;;;;;7.03;2.33;;;4.00;99.90;;;;;;5081130;28;20175;-79
2023/03/27 00:32:41;;;;;;;12.23;2.87;;;4.00;99.90;;;;;;5082090;28;20258;-80
2023/03/27 00:35:08;;;;;;;11.80;2.63;;;4.00;99.90;;;;;;5082617;28;20174;-80
2023/03/27 00:37:34;;;;;;;8.37;2.60;;;4.00;99.90;;;;;;5080727;28;20203;-79
2023/03/27 00:40:00;;;;;;;12.63;3.10;;;4.00;99.90;;;;;;5082468;28;20202;-80
2023/03/27 00:42:26;;;;;;;9.07;2.47;;;3.90;99.90;;;;;;5083219;28;20197;-80
2023/03/27 00:44:53;;;;;;;8.50;2.50;;;3.90;99.90;;;;;;5081775;28;20570;-80
2023/03/27 00:47:28;;;;;;;11.63;2.60;;;3.90;99.90;;;;;;5093388;28;20170;-79
2023/03/27 00:49:54;;;;;;;13.90;3.30;;;3.90;99.90;;;;;;5098234;28;20161;-79
2023/03/27 00:52:20;;;;;;;7.67;2.30;;;3.90;99.90;;;;;;5091349;28;20232;-80
2023/03/27 00:54:46;;;;;;;11.73;2.43;;;3.90;99.90;;;;;;5079377;28;20172;-80
2023/03/27 00:57:17;;;;;;;10.27;3.00;;;3.80;99.90;;;;;;5078765;28;20261;-79
2023/03/27 00:59:45;;;;;;;10.47;3.10;;;3.90;99.90;;;;;;5078382;28;20641;-80
2023/03/27 01:02:12;;;;;;;12.20;3.00;;;3.90;99.90;;;;;;5078745;28;20512;-80
2023/03/27 01:04:40;;;;;;;8.20;3.37;;;3.90;99.90;;;;;;5077936;28;20202;-79
2023/03/27 01:07:07;;;;;;;14.03;3.00;;;3.80;99.90;;;;;;5078986;28;20175;-80
2023/03/27 01:09:33;;;;;;;13.40;3.33;;;3.90;99.90;;;;;;5078640;28;20183;-80
2023/03/27 01:12:10;;;;;;;10.30;2.47;;;3.80;99.90;;;;;;5078720;28;20202;-79
2023/03/27 01:14:57;;;;;;;11.17;2.90;;;3.80;99.90;;;;;;5079080;28;20170;-80
2023/03/27 01:17:51;;;;;;;10.40;2.97;;;3.80;99.90;;;;;;5078612;28;20167;-80
2023/03/27 01:20:26;;;;;;;10.17;1.97;;;3.70;99.90;;;;;;5079446;28;20224;-80
2023/03/27 01:23:15;;;;;;;13.73;2.03;;;3.70;99.90;;;;;;5077560;28;20190;-79
2023/03/27 01:25:56;;;;;;;4.63;1.80;;;3.70;99.90;;;;;;5077782;28;20167;-79
2023/03/27 01:28:36;;;;;;;10.20;2.17;;;3.70;99.90;;;;;;5077819;28;20197;-80
2023/03/27 01:31:08;;;;;;;10.27;1.43;;;3.60;99.90;;;;;;5079053;28;20557;-79
2023/03/27 01:34:05;;;;;;;10.63;1.87;;;3.60;99.90;;;;;;5079467;28;20208;-79
2023/03/27 01:36:47;;;;;;;4.63;1.53;;;3.60;99.90;;;;;;5078581;28;20183;-79
2023/03/27 01:39:12;;;;;;;7.80;1.60;;;3.60;99.90;;;;;;5078826;28;20219;-80
2023/03/27 01:41:41;;;;;;;9.43;1.73;;;3.60;99.90;;;;;;5078898;28;20255;-79
2023/03/27 01:44:18;;;;;;;18.13;1.97;;;3.60;99.90;;;;;;5078613;28;20201;-80
2023/03/27 01:47:06;;;;;;;4.97;1.60;;;3.60;99.90;;;;;;5077634;28;20186;-80
2023/03/27 01:49:43;;;;;;;8.60;2.30;;;3.60;99.90;;;;;;5077730;28;20175;-80
2023/03/27 01:52:17;;;;;;;7.93;1.33;;;3.60;99.90;;;;;;5078721;28;20190;-80
2023/03/27 01:54:54;;;;;;;8.00;1.77;;;3.50;99.90;;;;;;5078248;28;20166;-80
2023/03/27 01:57:27;;;;;;;12.53;2.10;;;3.50;99.90;;;;;;5078975;28;20257;-80
2023/03/27 02:00:10;;;;;;;10.70;1.50;;;3.50;99.90;;;;;;5076592;28;20167;-79
2023/03/27 02:02:38;;;;;;;9.43;1.97;;;3.40;99.90;;;;;;5078579;28;20202;-79
2023/03/27 02:05:11;;;;;;;4.97;1.30;;;3.40;99.90;;;;;;5077126;28;20175;-79
2023/03/27 02:07:42;;;;;;;9.53;2.27;;;3.30;99.90;;;;;;5078606;28;20179;-80
2023/03/27 02:10:13;;;;;;;9.67;1.80;;;3.30;99.90;;;;;;5077912;28;20159;-79
2023/03/27 02:12:47;;;;;;;13.60;1.77;;;3.30;99.90;;;;;;5079007;28;20203;-79
2023/03/27 02:15:18;;;;;;;4.43;1.13;;;3.20;99.90;;;;;;5078165;28;20165;-79
2023/03/27 02:17:52;;;;;;;13.80;1.80;;;3.10;99.90;;;;;;5077556;28;20178;-79
2023/03/27 02:20:19;;;;;;;11.90;1.80;;;3.10;99.90;;;;;;5076456;28;20163;-80
2023/03/27 02:22:47;;;;;;;10.63;2.00;;;3.10;99.90;;;;;;5078428;28;20637;-80
2023/03/27 02:25:21;;;;;;;9.60;2.53;;;3.10;99.90;;;;;;5076279;28;20186;-79
2023/03/27 02:27:50;;;;;;;7.40;1.63;;;3.00;99.90;;;;;;5076847;28;20185;-80
2023/03/27 02:30:26;;;;;;;8.83;1.70;;;3.00;99.90;;;;;;5078479;28;20183;-79
2023/03/27 02:32:55;;;;;;;8.27;1.50;;;3.70;99.90;;;;;;5078048;28;20218;-80
2023/03/27 02:35:38;;;;;;;5.53;1.53;;;3.00;99.90;;;;;;5077094;28;20179;-80
2023/03/27 02:38:19;;;;;;;6.53;2.07;;;2.90;99.90;;;;;;5078480;28;20572;-80
2023/03/27 02:41:19;;;;;;;7.90;1.70;;;3.00;99.90;;;;;;5076921;28;20202;-79
2023/03/27 02:44:37;;;;;;;9.07;1.90;;;3.00;99.90;;;;;;5077918;28;20596;-79
2023/03/27 02:47:17;;;;;;;6.93;1.60;;;2.90;99.90;;;;;;5077388;28;20206;-80
2023/03/27 02:49:51;;;;;;;11.00;1.60;;;2.90;99.90;;;;;;5078798;28;20166;-79
2023/03/27 02:52:23;;;;;;;6.13;1.70;;;2.90;99.90;;;;;;5078613;28;20186;-79
2023/03/27 02:54:58;;;;;;;7.53;1.27;;;2.80;99.90;;;;;;5079419;28;20162;-80
2023/03/27 02:57:26;;;;;;;8.30;2.17;;;2.80;99.90;;;;;;5079060;28;20568;-80
2023/03/27 02:59:56;;;;;;;7.30;1.53;;;2.70;99.90;;;;;;5079542;28;20281;-80
2023/03/27 03:02:28;;;;;;;9.27;2.10;;;2.70;99.90;;;;;;5078708;28;20293;-80
2023/03/27 03:04:59;;;;;;;6.67;1.80;;;2.70;99.90;;;;;;5079419;28;20179;-80
2023/03/27 03:07:25;;;;;;;6.40;1.70;;;2.70;99.90;;;;;;5078191;28;20180;-80
2023/03/27 03:09:54;;;;;;;5.10;1.57;;;2.70;99.90;;;;;;5079911;28;20177;-79
2023/03/27 03:12:20;;;;;;;4.13;1.40;;;2.70;99.90;;;;;;5079368;28;20211;-79
2023/03/27 03:14:46;;;;;;;4.47;1.77;;;2.60;99.90;;;;;;5079327;28;20167;-80
2023/03/27 03:17:13;;;;;;;5.10;1.70;;;2.60;99.90;;;;;;5086605;28;20224;-79
2023/03/27 03:19:39;;;;;;;6.67;1.60;;;2.50;99.90;;;;;;5088400;28;20233;-80
2023/03/27 03:22:05;;;;;;;8.30;1.47;;;2.50;99.90;;;;;;5085877;28;20195;-79
2023/03/27 03:24:31;;;;;;;4.37;1.53;;;2.50;99.90;;;;;;5077569;28;20228;-80
2023/03/27 03:26:58;;;;;;;6.77;1.50;;;2.50;99.90;;;;;;5079218;28;20194;-80
2023/03/27 03:29:28;;;;;;;6.73;1.97;;;2.50;99.90;;;;;;5081347;28;20175;-80
2023/03/27 03:31:58;;;;;;;5.83;1.70;;;2.50;99.90;;;;;;5080595;28;20221;-80
2023/03/27 03:34:23;;;;;;;3.20;1.60;;;2.40;99.90;;;;;;5079526;28;20194;-80
2023/03/27 03:36:49;;;;;;;6.97;1.40;;;2.30;99.90;;;;;;5080866;28;20532;-80
2023/03/27 03:39:15;;;;;;;5.53;1.40;;;2.30;99.90;;;;;;5081329;28;20197;-80
2023/03/27 03:41:41;;;;;;;6.60;1.30;;;2.30;99.90;;;;;;5078880;28;20193;-80
2023/03/27 03:44:09;;;;;;;3.73;1.33;;;2.30;99.90;;;;;;5080347;28;20173;-80
2023/03/27 03:46:35;;;;;;;4.47;1.30;;;2.20;99.90;;;;;;5079185;28;20177;-80
2023/03/27 03:49:01;;;;;;;4.70;1.50;;;2.20;99.90;;;;;;5080603;28;20519;-80
2023/03/27 03:51:27;;;;;;;5.90;1.80;;;2.20;99.90;;;;;;5080085;28;20244;-81
2023/03/27 03:53:53;;;;;;;4.03;1.80;;;2.20;99.90;;;;;;5081097;28;20278;-81
2023/03/27 03:56:18;;;;;;;9.63;1.70;;;2.20;99.90;;;;;;5080544;28;20208;-80
2023/03/27 03:58:44;;;;;;;4.63;1.77;;;2.10;99.90;;;;;;5079195;28;20175;-79
2023/03/27 04:01:09;;;;;;;6.20;1.63;;;2.10;99.90;;;;;;5079962;28;20175;-80
2023/03/27 04:03:35;;;;;;;8.77;1.90;;;2.10;99.90;;;;;;5080136;28;20167;-81
2023/03/27 04:06:04;;;;;;;7.53;2.00;;;2.10;99.90;;;;;;5078414;28;20194;-81
2023/03/27 04:08:30;;;;;;;5.00;1.77;;;2.00;99.90;;;;;;5079893;28;20170;-80
2023/03/27 04:10:56;;;;;;;12.00;1.70;;;2.00;99.90;;;;;;5079783;28;20213;-81
2023/03/27 04:13:22;;;;;;;8.33;1.50;;;2.10;99.90;;;;;;5079648;28;20198;-80
2023/03/27 04:15:47;;;;;;;5.87;1.90;;;2.10;99.90;;;;;;5078344;28;20171;-80
2023/03/27 04:18:18;;;;;;;9.63;1.60;;;2.10;99.90;;;;;;5079910;28;20652;-81
2023/03/27 04:20:48;;;;;;;8.87;2.33;;;2.20;99.90;;;;;;5077721;28;20170;-80
2023/03/27 04:23:20;;;;;;;8.67;2.00;;;2.00;99.90;;;;;;5079195;28;20555;-81
2023/03/27 04:25:46;;;;;;;4.10;1.67;;;2.10;99.90;;;;;;5078341;28;20163;-80
2023/03/27 04:28:15;;;;;;;10.17;2.03;;;2.10;99.90;;;;;;5078074;28;20185;-81
2023/03/27 04:30:43;;;;;;;5.57;1.57;;;2.10;99.90;;;;;;5079840;28;20167;-81
2023/03/27 04:33:17;;;;;;;6.27;1.73;;;2.10;99.90;;;;;;5079765;28;20195;-81
2023/03/27 04:35:45;;;;;;;7.77;1.90;;;2.10;99.90;;;;;;5080270;28;20151;-81
2023/03/27 04:38:12;;;;;;;8.70;1.87;;;2.10;99.90;;;;;;5079767;28;20194;-80
2023/03/27 04:40:45;;;;;;;9.00;1.50;;;2.10;99.90;;;;;;5078655;28;20639;-80
2023/03/27 04:43:11;;;;;;;7.23;1.97;;;2.10;99.90;;;;;;5079132;28;20561;-81
2023/03/27 04:45:37;;;;;;;9.33;2.43;;;2.10;99.90;;;;;;5077733;28;20189;-80
2023/03/27 04:48:04;;;;;;;7.77;1.63;;;2.10;99.90;;;;;;5079392;28;20284;-80
2023/03/27 04:50:29;;;;;;;8.60;1.70;;;2.10;99.90;;;;;;5079212;28;20178;-81
2023/03/27 04:52:58;;;;;;;14.20;1.97;;;2.10;99.90;;;;;;5078092;28;20263;-78
2023/03/27 04:55:26;;;;;;;7.33;2.10;;;2.10;99.90;;;;;;5078495;28;20320;-82
2023/03/27 04:57:53;;;;;;;8.80;1.67;;;2.10;99.90;;;;;;5076521;28;20702;-81
2023/03/27 05:00:21;;;;;;;4.30;1.90;;;2.10;99.90;;;;;;5078179;28;20167;-82
2023/03/27 05:02:51;;;;;;;9.07;1.60;;;2.10;99.90;;;;;;5077891;28;20191;-81
2023/03/27 05:05:18;;;;;;;7.30;2.73;;;2.00;99.90;;;;;;5077113;28;20662;-81
2023/03/27 05:07:45;;;;;;;8.30;1.60;;;2.00;99.90;;;;;;5075970;28;20179;-81
2023/03/27 05:10:10;;;;;;;12.70;2.77;;;2.00;99.90;;;;;;5076894;28;20171;-83
2023/03/27 05:12:45;;;;;;;6.77;2.03;;;2.10;99.90;;;;;;5075093;28;20209;-82
2023/03/27 05:15:11;;;;;;;8.57;2.10;;;2.10;99.90;;;;;;5077003;28;20154;-81
2023/03/27 05:17:42;;;;;;;6.50;2.00;;;2.10;99.90;;;;;;5076432;28;20635;-83
2023/03/27 05:20:11;;;;;;;8.40;2.03;;;2.10;99.90;;;;;;5076828;28;20494;-82
2023/03/27 05:22:37;;;;;;;4.83;1.43;;;2.10;99.90;;;;;;5075437;28;20206;-82
2023/03/27 05:25:03;;;;;;;7.10;1.83;;;2.10;99.90;;;;;;5075286;28;20178;-82
2023/03/27 05:27:28;;;;;;;6.33;1.70;;;2.10;99.90;;;;;;5075692;28;20251;-82
2023/03/27 05:29:54;;;;;;;5.90;2.00;;;2.10;99.90;;;;;;5076676;28;20224;-81
2023/03/27 05:32:20;;;;;;;13.90;2.00;;;2.20;99.90;;;;;;5076669;28;20195;-82
2023/03/27 05:34:49;;;;;;;8.87;2.20;;;2.20;99.90;;;;;;5078184;28;20228;-82
2023/03/27 05:37:15;;;;;;;6.43;2.40;;;2.20;99.90;;;;;;5076148;28;20175;-81
2023/03/27 05:39:40;;;;;;;6.27;2.07;;;2.30;99.90;;;;;;5078093;28;20547;-82
2023/03/27 05:42:06;;;;;;;6.93;2.30;;;2.30;99.90;;;;;;5078595;28;20191;-82
2023/03/27 05:44:32;;;;;;;9.43;2.10;;;2.30;99.90;;;;;;5076611;28;20181;-82
2023/03/27 05:46:58;;;;;;;4.57;1.80;;;2.40;99.90;;;;;;5079250;28;20643;-79
2023/03/27 05:49:23;;;;;;;6.27;2.30;;;2.40;99.90;;;;;;5075173;28;20183;-80
2023/03/27 05:51:49;;;;;;;14.27;2.40;;;2.50;99.90;;;;;;5074927;28;20205;-80
2023/03/27 05:54:15;;;;;;;6.10;1.90;;;2.50;99.90;;;;;;5075152;28;20186;-80
2023/03/27 05:56:40;;;;;;;11.07;1.80;;;2.60;99.90;;;;;;5077251;28;20230;-80
2023/03/27 05:59:06;;;;;;;7.70;2.20;;;2.60;99.90;;;;;;5077365;28;20581;-80
2023/03/27 06:01:34;;;;;;;5.33;1.97;;;2.70;99.90;;;;;;5075743;28;20218;-79
2023/03/27 06:04:01;;;;;;;4.47;1.70;;;2.70;99.90;;;;;;5077491;28;20171;-80
2023/03/27 06:06:26;;;;;;;8.17;2.17;;;2.80;99.90;;;;;;5077888;28;20664;-80
2023/03/27 06:08:52;;;;;;;7.23;2.10;;;2.80;99.90;;;;;;5076647;28;20204;-80
2023/03/27 06:11:17;;;;;;;5.23;1.67;;;2.90;99.90;;;;;;5076807;28;20190;-80
2023/03/27 06:13:43;;;;;;;9.33;2.07;;;3.00;99.90;;;;;;5077707;28;20194;-80
2023/03/27 06:16:09;;;;;;;4.67;2.30;;;3.00;99.90;;;;;;5078427;28;20182;-80
2023/03/27 06:18:35;;;;;;;4.57;1.60;;;3.00;99.90;;;;;;5078149;28;20173;-80
2023/03/27 06:21:01;;;;;;;4.70;2.10;;;3.10;99.90;;;;;;5076966;28;20210;-80
2023/03/27 06:23:27;;;;;;;7.77;1.73;;;3.10;99.90;;;;;;5077747;28;20224;-80
2023/03/27 06:25:53;;;;;;;7.67;2.20;;;3.10;99.90;;;;;;5079975;28;20187;-80
2023/03/27 06:28:19;;;;;;;5.90;1.77;;;3.20;99.90;;;;;;5080887;28;20301;-80
2023/03/27 06:30:46;;;;;;;9.00;2.30;;;3.20;99.90;;;;;;5079251;28;20179;-80
2023/03/27 06:33:13;;;;;;;9.20;1.70;;;3.20;99.90;;;;;;5081418;28;20551;-81
2023/03/27 06:35:40;;;;;;;6.63;1.77;;;3.20;99.90;;;;;;5079036;28;20173;-80
2023/03/27 06:38:06;;;;;;;6.40;1.80;;;3.20;99.90;;;;;;5078983;28;20193;-81
2023/03/27 06:40:34;;;;;;;5.13;1.80;;;3.20;99.90;;;;;;5078209;28;20171;-80
2023/03/27 06:43:07;;;;;;;8.93;2.07;;;3.20;99.90;;;;;;5082165;28;20202;-80
2023/03/27 06:45:37;;;;;;;5.17;1.60;;;3.20;99.90;;;;;;5090453;28;20166;-80
2023/03/27 06:48:04;;;;;;;3.50;1.30;;;3.20;99.90;;;;;;5091733;28;20178;-80
2023/03/27 06:50:31;;;;;;;9.87;1.80;;;3.20;99.90;;;;;;5077791;28;20691;-80
2023/03/27 06:52:57;;;;;;;5.43;1.67;;;3.20;99.90;;;;;;5077259;28;20233;-80
2023/03/27 06:55:25;;;;;;;2.87;1.50;;;3.20;99.90;;;;;;5076231;28;20192;-80
2023/03/27 06:57:54;;;;;;;3.63;1.30;;;3.30;99.90;;;;;;5077197;28;20197;-80
2023/03/27 07:00:23;;;;;;;5.23;1.33;;;3.30;99.90;;;;;;5078707;28;20163;-81
2023/03/27 07:02:53;;;;;;;3.63;1.37;;;3.40;99.90;;;;;;5080672;28;20679;-81
2023/03/27 07:05:19;;;;;;;4.83;1.87;;;3.40;99.90;;;;;;5082030;28;20193;-81
2023/03/27 07:07:45;;;;;;;2.60;1.53;;;3.40;99.90;;;;;;5082874;28;20573;-80
2023/03/27 07:10:12;;;;;;;5.87;1.60;;;3.50;99.90;;;;;;5080537;28;20190;-82
2023/03/27 07:12:38;;;;;;;5.10;1.73;;;3.60;99.90;;;;;;5082395;28;20242;-81
2023/03/27 07:15:05;;;;;;;3.80;1.20;;;3.70;99.90;;;;;;5080834;28;20202;-80
2023/03/27 07:17:32;;;;;;;3.20;1.10;;;3.90;99.90;;;;;;5083052;28;20175;-80
2023/03/27 07:19:57;;;;;;;3.53;0.90;;;4.00;45.80;;;;;;5083302;28;20187;-80
2023/03/27 07:22:23;;;;;;;6.23;1.53;;;4.00;21.50;;;;;;5084293;28;20191;-80
2023/03/27 07:24:49;;;;;;;3.80;0.93;;;4.10;1.00;;;;;;5086297;28;20558;-80
2023/03/27 07:27:15;;;;;;;7.93;1.37;;;4.10;1.00;;;;;;5086555;28;20178;-80
2023/03/27 07:29:41;;;;;;;4.83;1.17;;;4.20;1.00;;;;;;5085077;28;20221;-80
2023/03/27 07:32:06;;;;;;;4.37;1.10;;;4.20;1.00;;;;;;5082239;28;20195;-81
2023/03/27 07:34:32;;;;;;;1.93;1.00;;;4.30;1.00;;;;;;5081904;28;20202;-80
2023/03/27 07:36:58;;;;;;;3.10;1.37;;;4.30;1.00;;;;;;5080595;28;20688;-80
2023/03/27 07:39:24;;;;;;;2.70;1.00;;;4.30;1.00;;;;;;5082577;28;20168;-80
2023/03/27 07:41:50;;;;;;;5.60;1.07;;;4.50;1.00;;;;;;5080575;28;20300;-80
2023/03/27 07:44:17;;;;;;;3.93;1.30;;;4.50;1.00;;;;;;5080014;28;20185;-80
2023/03/27 07:46:44;;;;;;;5.80;1.43;;;4.60;1.00;;;;;;5081550;28;20227;-80
2023/03/27 07:49:10;;;;;;;4.87;1.40;;;4.60;1.00;;;;;;5081115;28;20171;-81
2023/03/27 07:51:36;;;;;;;6.00;1.40;;;4.70;1.00;;;;;;5081337;28;20286;-81
2023/03/27 07:54:03;;;;;;;9.77;1.43;;;4.80;1.00;;;;;;5081133;28;20510;-80
2023/03/27 07:56:31;;;;;;;8.60;1.57;;;4.80;1.00;;;;;;5080054;28;20178;-80
2023/03/27 07:58:57;;;;;;;2.67;1.43;;;4.90;1.00;;;;;;5080377;28;20167;-80
2023/03/27 08:01:24;;;;;;;5.13;1.10;;;4.90;1.00;;;;;;5079354;28;20584;-81
2023/03/27 08:03:50;;;;;;;6.43;1.40;;;5.60;99.90;;;;;;5081838;28;20275;-81
2023/03/27 08:06:16;;;;;;;2.93;1.20;;;5.10;1.00;;;;;;5081732;28;20545;-81
2023/03/27 08:08:42;;;;;;;5.43;1.30;;;5.20;1.00;;;;;;5080732;28;20293;-80
2023/03/27 08:11:08;;;;;;;2.20;1.30;;;5.30;1.00;;;;;;5081715;28;20671;-80
2023/03/27 08:13:34;;;;;;;4.17;1.10;;;5.30;99.90;;;;;;5079609;28;20198;-80
2023/03/27 08:16:16;;;;;;;4.13;0.80;;;5.50;40.90;;;;;;5081574;28;20167;-81
2023/03/27 08:18:43;;;;;;;6.67;1.10;;;5.60;99.90;;;;;;5081144;28;20677;-80
2023/03/27 08:21:10;;;;;;;4.47;1.10;;;5.60;99.90;;;;;;5080799;28;20175;-81
2023/03/27 08:23:37;;;;;;;3.57;1.27;;;5.60;99.90;;;;;;5080082;28;20202;-80
2023/03/27 08:26:04;;;;;;;6.60;1.37;;;5.60;91.90;;;;;;5081248;28;20174;-80
2023/03/27 08:28:32;;;;;;;3.93;1.20;;;5.50;99.90;;;;;;5081088;28;20194;-82
2023/03/27 08:30:58;;;;;;;5.07;1.10;;;5.50;1.70;;;;;;5080860;28;20170;-80
2023/03/27 08:33:26;;;;;;;9.33;1.47;;;5.50;47.40;;;;;;5080183;28;20249;-80
2023/03/27 08:35:52;;;;;;;3.17;0.80;;;5.60;1.00;;;;;;5081148;28;20560;-81
2023/03/27 08:38:17;;;;;;;6.07;1.13;;;5.70;1.00;;;;;;5079237;28;20179;-80
2023/03/27 08:40:52;;;;;;;6.23;1.27;;;5.60;1.00;;;;;;5081555;28;20179;-81
2023/03/27 08:43:21;;;;;;;7.90;1.60;;;5.60;24.30;;;;;;5080714;28;20685;-81
2023/03/27 08:46:13;;;;;;;7.43;1.40;;;5.60;29.70;;;;;;5080437;28;20171;-81
2023/03/27 08:48:52;;;;;;;5.67;1.13;;;5.70;99.90;;;;;;5078633;28;20195;-79
2023/03/27 08:51:26;;;;;;;6.53;1.23;;;5.80;99.90;;;;;;5078951;28;20171;-81
2023/03/27 08:54:08;;;;;;;7.00;1.20;;;5.80;27.10;;;;;;5081405;28;20658;-81
2023/03/27 08:56:33;;;;;;;4.23;1.50;;;5.90;99.90;;;;;;5080276;28;20653;-80
2023/03/27 08:59:00;;;;;;;3.67;1.40;;;6.10;1.00;;;;;;5080342;28;20171;-80
2023/03/27 09:01:35;;;;;;;2.30;1.30;;;6.20;99.90;;;;;;5080174;28;20201;-80
2023/03/27 09:04:03;;;;;;;7.37;1.40;;;6.20;1.00;;;;;;5079369;28;20602;-79
2023/03/27 09:06:55;;;;;;;7.33;1.13;;;6.20;99.90;;;;;;5080027;28;20199;-80
2023/03/27 09:09:45;;;;;;;7.67;1.40;;;6.10;44.00;;;;;;5078612;28;20179;-81
2023/03/27 09:12:27;;;;;;;4.87;1.10;;;6.10;99.90;;;;;;5078560;28;20219;-80
2023/03/27 09:15:08;;;;;;;4.00;1.30;;;6.20;1.00;;;;;;5079621;28;20178;-80
2023/03/27 09:17:44;;;;;;;3.27;1.20;;;6.10;1.00;;;;;;5080379;28;20155;-80
2023/03/27 09:20:09;;;;;;;5.23;1.30;;;6.00;1.00;;;;;;5080344;28;20170;-80
2023/03/27 09:22:46;;;;;;;4.87;1.17;;;5.90;1.00;;;;;;5077587;28;20199;-81
2023/03/27 09:25:37;;;;;;;6.00;1.50;;;5.90;1.00;;;;;;5078630;28;20626;-81
2023/03/27 09:28:10;;;;;;;5.53;1.50;;;5.90;99.90;;;;;;5073737;28;20224;-80
2023/03/27 09:30:37;;;;;;;5.67;1.67;;;5.90;12.80;;;;;;5078665;28;20255;-80
2023/03/27 09:33:04;;;;;;;9.43;2.50;;;5.90;91.10;;;;;;5080204;28;20624;-81
2023/03/27 09:35:31;;;;;;;4.07;1.40;;;5.90;1.00;;;;;;5079853;28;20173;-80
2023/03/27 09:38:02;;;;;;;5.20;1.53;;;5.90;99.90;;;;;;5078664;28;20270;-80
2023/03/27 09:40:47;;;;;;;8.23;1.60;;;6.10;1.00;;;;;;5080010;28;20167;-80
2023/03/27 09:43:21;;;;;;;3.97;1.37;;;6.30;99.90;;;;;;5079136;28;20206;-80
2023/03/27 09:45:50;;;;;;;8.13;1.40;;;6.40;99.90;;;;;;5079807;28;20155;-80
2023/03/27 09:48:33;;;;;;;4.50;1.37;;;6.50;1.00;;;;;;5079207;28;20171;-79
2023/03/27 09:50:58;;;;;;;6.63;1.40;;;6.50;99.90;;;;;;5077995;28;20220;-80
2023/03/27 09:53:26;;;;;;;10.17;1.47;;;6.50;1.00;;;;;;5079853;28;20206;-80
2023/03/27 09:56:04;;;;;;;6.40;1.20;;;6.50;1.00;;;;;;5078215;28;20174;-80
2023/03/27 09:58:50;;;;;;;4.40;1.33;;;6.40;1.00;;;;;;5080070;28;20250;-80
2023/03/27 10:01:23;;;;;;;5.17;1.57;;;6.50;99.90;;;;;;5082153;28;20190;-82
2023/03/27 10:03:51;;;;;;;5.50;1.20;;;6.60;99.90;;;;;;5082176;28;20177;-82
2023/03/27 10:06:28;;;;;;;4.93;1.10;;;6.70;99.90;;;;;;5080800;28;20179;-81
2023/03/27 10:08:55;;;;;;;5.10;1.00;;;6.80;10.10;;;;;;5080403;28;20571;-81
2023/03/27 10:11:25;;;;;;;2.87;1.40;;;7.00;1.00;;;;;;5080375;28;20190;-81
2023/03/27 10:13:52;;;;;;;4.80;1.37;;;7.10;1.00;;;;;;5082247;28;20183;-80
2023/03/27 10:16:20;;;;;;;7.23;1.33;;;7.10;1.00;;;;;;5082118;28;20174;-83
2023/03/27 10:18:52;;;;;;;5.20;1.30;;;7.10;12.30;;;;;;5079009;28;20170;-82
2023/03/27 10:21:34;;;;;;;4.13;1.30;;;7.00;1.00;;;;;;5080749;28;20189;-82
2023/03/27 10:24:25;;;;;;;7.43;1.00;;;6.80;99.90;;;;;;5082285;28;20579;-82
2023/03/27 10:26:52;;;;;;;2.30;1.07;;;6.50;1.00;;;;;;5075181;28;20243;-82
2023/03/27 10:29:21;;;;;;;1.77;1.10;;;5.90;99.90;;;;;;5082420;28;20266;-82
2023/03/27 10:31:53;;;;;;;9.33;1.80;;;5.70;99.90;;;;;;5082467;28;20222;-82
2023/03/27 10:34:52;;;;;;;4.23;1.30;;;5.60;1.00;;;;;;5081916;28;20673;-82
2023/03/27 10:37:22;;;;;;;3.37;1.10;;;5.50;49.70;;;;;;5078280;28;20194;-82
2023/03/27 10:39:47;;;;;;;3.67;1.40;;;5.40;99.90;;;;;;5082182;28;20167;-82
2023/03/27 10:42:15;;;;;;;8.43;1.63;;;5.30;99.90;;;;;;5080021;28;20271;-83
2023/03/27 10:44:44;;;;;;;2.67;1.30;;;5.30;99.90;;;;;;5080437;28;20198;-82
2023/03/27 10:47:19;;;;;;;4.90;1.17;;;5.30;99.90;;;;;;5083209;28;20167;-83
2023/03/27 10:50:13;;;;;;;5.93;1.83;;;5.40;99.90;;;;;;5079984;28;20584;-83
2023/03/27 10:53:06;;;;;;;7.60;1.30;;;5.60;99.90;;;;;;5081335;28;20223;-82
2023/03/27 10:56:07;;;;;;;5.50;1.47;;;5.70;87.90;;;;;;5081678;28;20171;-82
2023/03/27 10:58:42;;;;;;;5.83;0.97;;;5.90;1.00;;;;;;5080787;28;20178;-83
2023/03/27 11:01:16;;;;;;;2.30;1.00;;;6.10;99.90;;;;;;5080754;28;20162;-83
2023/03/27 11:04:14;;;;;;;2.27;0.73;;;6.10;99.90;;;;;;5082979;28;20165;-81
2023/03/27 11:06:42;;;;;;;3.23;0.83;;;6.40;1.00;;;;;;5082291;28;20182;-82
2023/03/27 11:09:26;;;;;;;3.00;0.90;;;6.60;1.00;;;;;;5082530;28;20673;-80
2023/03/27 11:12:04;;;;;;;4.20;1.00;;;6.50;1.00;;;;;;5081808;28;20305;-81
2023/03/27 11:14:51;;;;;;;2.70;0.80;;;6.00;99.90;;;;;;5082528;28;20222;-82
2023/03/27 11:17:22;;;;;;;2.30;0.77;;;5.70;99.90;;;;;;5083051;28;20177;-81
2023/03/27 11:20:05;;;;;;;1.63;0.70;;;5.50;1.00;;;;;;5082713;28;20623;-81
2023/03/27 11:22:41;;;;;;;3.60;1.00;;;5.30;31.20;;;;;;5085631;28;20187;-81
2023/03/27 11:25:18;;;;;;;2.80;0.93;;;5.30;99.90;;;;;;5084210;28;20167;-81
2023/03/27 11:27:57;;;;;;;1.80;0.60;;;5.40;99.90;;;;;;5086567;28;20156;-82
2023/03/27 11:30:39;;;;;;;1.50;0.70;;;5.40;99.90;;;;;;5085527;28;20186;-82
2023/03/27 11:33:15;;;;;;;3.33;0.70;;;5.40;1.00;;;;;;5087102;28;20261;-81
2023/03/27 11:35:49;;;;;;;2.73;0.67;;;5.50;1.00;;;;;;5084648;28;20171;-81
2023/03/27 11:38:23;;;;;;;0.97;0.77;;;5.60;99.90;;;;;;5080956;28;20171;-81
2023/03/27 11:40:50;;;;;;;0.80;0.67;;;5.70;1.00;;;;;;5083035;28;20174;-81
2023/03/27 11:43:17;;;;;;;2.63;0.63;;;5.80;1.00;;;;;;5079172;28;20245;-81
2023/03/27 11:46:14;;;;;;;2.87;0.80;;;5.80;1.00;;;;;;5081184;28;20175;-82
2023/03/27 11:49:22;;;;;;;0.60;0.60;;;6.00;1.00;;;;;;5081035;28;20202;-80
2023/03/27 11:51:56;;;;;;;1.00;0.60;;;6.10;1.00;;;;;;5085381;28;20368;-82
2023/03/27 11:54:29;;;;;;;3.07;0.60;;;6.30;1.00;;;;;;5077445;28;20201;-79
2023/03/27 11:56:59;;;;;;;1.80;0.50;;;6.50;99.90;;;;;;5078835;28;20159;-79
2023/03/27 11:59:54;;;;;;;1.03;0.60;;;6.60;99.90;;;;;;5076904;28;20169;-79
2023/03/27 12:02:23;;;;;;;0.67;0.40;;;6.80;99.90;;;;;;5077458;28;20354;-80
2023/03/27 12:04:54;;;;;;;5.30;0.70;;;6.90;1.00;;;;;;5076496;28;20175;-80
2023/03/27 12:07:28;;;;;;;2.43;0.70;;;6.90;1.00;;;;;;5077411;28;20316;-79
2023/03/27 12:10:25;;;;;;;1.83;0.70;;;6.60;1.00;;;;;;5077134;28;20170;-79
2023/03/27 12:13:13;;;;;;;2.73;0.70;;;6.00;1.00;;;;;;5076979;28;20286;-80
2023/03/27 12:15:52;;;;;;;1.57;0.70;;;5.90;1.00;;;;;;5077933;28;20657;-79
2023/03/27 12:18:49;;;;;;;1.87;0.60;;;5.90;1.00;;;;;;5076104;28;20162;-79
2023/03/27 12:21:40;;;;;;;2.30;0.60;;;5.90;99.90;;;;;;5076156;28;20192;-79
2023/03/27 12:24:24;;;;;;;0.30;0.30;;;5.80;99.90;;;;;;5077776;28;20618;-79
2023/03/27 12:26:52;;;;;;;2.00;0.50;;;5.60;75.90;;;;;;5077474;28;20220;-79
2023/03/27 12:29:59;;;;;;;0.73;0.40;;;5.30;99.90;;;;;;5077426;28;20178;-79
2023/03/27 12:32:52;;;;;;;1.20;0.63;;;5.20;99.90;;;;;;5037995;28;20230;-79
2023/03/27 12:35:21;;;;;;;3.33;0.80;;;5.10;99.90;;;;;;5038141;28;20183;-79
2023/03/27 12:38:00;;;;;;;0.57;0.43;;;5.10;99.90;;;;;;5069787;28;20182;-79
2023/03/27 12:40:46;;;;;;;0.37;0.30;;;5.10;1.00;;;;;;5076062;28;20277;-79
2023/03/27 12:43:28;;;;;;;0.53;0.40;;;5.10;99.90;;;;;;5076811;28;20285;-79
2023/03/27 12:46:29;;;;;;;1.40;0.53;;;5.30;1.00;;;;;;5078761;28;20151;-79
2023/03/27 12:49:06;;;;;;;2.63;0.60;;;5.40;1.00;;;;;;5077154;28;20162;-79
2023/03/27 12:51:42;;;;;;;2.50;0.50;;;5.60;99.90;;;;;;5078948;28;20731;-80
2023/03/27 12:54:23;;;;;;;1.40;0.73;;;5.80;1.00;;;;;;5076921;28;20653;-79
2023/03/27 12:56:53;;;;;;;2.70;0.60;;;6.00;1.00;;;;;;5078944;28;20151;-79
2023/03/27 12:59:25;;;;;;;2.23;0.77;;;6.20;1.00;;;;;;5080230;28;20167;-79
2023/03/27 13:01:50;;;;;;;2.20;0.70;;;6.40;99.90;;;;;;5078920;28;20268;-79
2023/03/27 13:04:26;;;;;;;1.93;0.83;;;6.50;25.90;;;;;;5076315;28;20210;-79
2023/03/27 13:07:09;;;;;;;3.93;0.63;;;6.70;1.00;;;;;;5078116;28;20221;-79
2023/03/27 13:09:55;;;;;;;1.50;0.70;;;6.90;99.90;;;;;;5078391;28;20162;-78
2023/03/27 13:12:51;;;;;;;2.23;0.80;;;7.10;1.00;;;;;;5075993;28;20214;-80
2023/03/27 13:15:33;;;;;;;0.70;0.53;;;7.30;1.00;;;;;;5084770;28;20163;-81
2023/03/27 13:18:07;;;;;;;1.80;0.67;;;7.50;1.00;;;;;;5082739;28;20147;-81
2023/03/27 13:20:47;;;;;;;3.30;1.13;;;7.70;1.00;;;;;;5081908;28;20186;-81
2023/03/27 13:23:57;;;;;;;3.03;1.33;;;7.70;99.90;;;;;;5082797;28;20218;-81